F/V Pasiphae 2 — FMFN — position and weather

sailwx.info

Track history (hours):
 
Tides and Currents Weather Stations Pressure Air Temp Water Temp Dewpoint Dewpoint Depression Visibility Wind Speed Wind Dir Waves Ship Positions

F/V Pasiphae 2

Last reported at 2017-Jan-13 01:34 UTC. Time now 2017-Jan-16 15:16 UTC.
Position N 47°44' W 003°22'.

Length 14 m.

Type: Fishing. MMSI: 228224800.

Date/timePositionNaut miles runAvg speedWind from/ knotsBaromVisibWave heightAir tempDewpointWater temp
2017-Jan-13 01:34N 47°44' W 003°22'0 0.0
2017-Jan-13 00:34N 47°44' W 003°22'0 0.2
2017-Jan-12 23:34N 47°44' W 003°22'0 0.0
2017-Jan-12 22:34N 47°44' W 003°22'0 0.0
2017-Jan-12 21:33N 47°44' W 003°22'6 5.9
2017-Jan-12 20:34N 47°38' W 003°23'8 7.6
2017-Jan-12 19:34N 47°30' W 003°23'7 7.1
2017-Jan-12 18:34N 47°23' W 003°24'6 6.1
2017-Jan-12 17:33N 47°17' W 003°24'3 0.1
2017-Jan-11 11:27N 47°16' W 003°20'2 1.8
2017-Jan-11 10:33N 47°16' W 003°18'4 3.4
2017-Jan-11 09:30N 47°18' W 003°23'3 2.7
2017-Jan-11 08:33N 47°16' W 003°20'2 1.6
2017-Jan-11 07:33N 47°17' W 003°22'2 1.5
2017-Jan-11 06:30N 47°17' W 003°20'3 2.8
2017-Jan-11 05:16N 47°20' W 003°22'7 9.1
2017-Jan-11 04:28N 47°27' W 003°22'9 9.2
2017-Jan-11 03:33N 47°35' W 003°22'8 8.5
2017-Jan-11 02:33N 47°44' W 003°22'3 3.3
2017-Jan-11 01:33N 47°40' W 003°22'9 8.9
2017-Jan-11 00:33N 47°32' W 003°25'9 9.0
2017-Jan-10 23:33N 47°24' W 003°30'7 7.0
2017-Jan-10 22:33N 47°18' W 003°36'3 0.1
2017-Jan-09 05:05N 47°15' W 003°35'5 8.9
2017-Jan-09 04:32N 47°19' W 003°32'9 9.3
2017-Jan-09 03:33N 47°28' W 003°27'9 9.4
2017-Jan-09 02:34N 47°37' W 003°22'7 7.2
2017-Jan-09 01:33N 47°44' W 003°22'0 0.0
2017-Jan-07 01:23N 47°44' W 003°22'7 8.3
2017-Jan-07 00:33N 47°37' W 003°22'9 8.6
2017-Jan-06 23:33N 47°29' W 003°28'10 8.8
2017-Jan-06 22:27N 47°21' W 003°35'5 0.1
2017-Jan-05 03:32N 47°18' W 003°29'9 9.0
2017-Jan-05 02:33N 47°27' W 003°26'9 9.2
2017-Jan-05 01:34N 47°36' W 003°23'8 8.1
2017-Jan-05 00:33N 47°44' W 003°22'4 3.7
2017-Jan-04 23:33N 47°40' W 003°22'9 9.0
2017-Jan-04 22:33N 47°31' W 003°21'13 0.3
2017-Jan-03 04:28N 47°20' W 003°30'8 8.5
2017-Jan-03 03:34N 47°28' W 003°27'9 8.7
2017-Jan-03 02:34N 47°36' W 003°23'  
Track history (hours):
 
Tides and Currents Weather Stations Pressure Air Temp Water Temp Dewpoint Dewpoint Depression Visibility Wind Speed Wind Dir Waves Ship Positions

F/V Pasiphae 2

Last reported at 2017-Jan-13 01:34 UTC. Time now 2017-Jan-16 15:16 UTC.
Position N 47°44' W 003°22'.

Length 14 m.

Type: Fishing. MMSI: 228224800.

Date/timePositionNaut miles runAvg speedWind from/ knotsBaromVisibWave heightAir tempDewpointWater temp
2017-Jan-13 01:34N 47°44' W 003°22'0 0.0
2017-Jan-13 00:34N 47°44' W 003°22'0 0.2
2017-Jan-12 23:34N 47°44' W 003°22'0 0.0
2017-Jan-12 22:34N 47°44' W 003°22'0 0.0
2017-Jan-12 21:33N 47°44' W 003°22'6 5.9
2017-Jan-12 20:34N 47°38' W 003°23'8 7.6
2017-Jan-12 19:34N 47°30' W 003°23'7 7.1
2017-Jan-12 18:34N 47°23' W 003°24'6 6.1
2017-Jan-12 17:33N 47°17' W 003°24'3 0.1
2017-Jan-11 11:27N 47°16' W 003°20'2 1.8
2017-Jan-11 10:33N 47°16' W 003°18'4 3.4
2017-Jan-11 09:30N 47°18' W 003°23'3 2.7
2017-Jan-11 08:33N 47°16' W 003°20'2 1.6
2017-Jan-11 07:33N 47°17' W 003°22'2 1.5
2017-Jan-11 06:30N 47°17' W 003°20'3 2.8
2017-Jan-11 05:16N 47°20' W 003°22'7 9.1
2017-Jan-11 04:28N 47°27' W 003°22'9 9.2
2017-Jan-11 03:33N 47°35' W 003°22'8 8.5
2017-Jan-11 02:33N 47°44' W 003°22'3 3.3
2017-Jan-11 01:33N 47°40' W 003°22'9 8.9
2017-Jan-11 00:33N 47°32' W 003°25'9 9.0
2017-Jan-10 23:33N 47°24' W 003°30'7 7.0
2017-Jan-10 22:33N 47°18' W 003°36'3 0.1
2017-Jan-09 05:05N 47°15' W 003°35'5 8.9
2017-Jan-09 04:32N 47°19' W 003°32'9 9.3
2017-Jan-09 03:33N 47°28' W 003°27'9 9.4
2017-Jan-09 02:34N 47°37' W 003°22'7 7.2
2017-Jan-09 01:33N 47°44' W 003°22'0 0.0
2017-Jan-07 01:23N 47°44' W 003°22'7 8.3
2017-Jan-07 00:33N 47°37' W 003°22'9 8.6
2017-Jan-06 23:33N 47°29' W 003°28'10 8.8
2017-Jan-06 22:27N 47°21' W 003°35'5 0.1
2017-Jan-05 03:32N 47°18' W 003°29'9 9.0
2017-Jan-05 02:33N 47°27' W 003°26'9 9.2
2017-Jan-05 01:34N 47°36' W 003°23'8 8.1
2017-Jan-05 00:33N 47°44' W 003°22'4 3.7
2017-Jan-04 23:33N 47°40' W 003°22'9 9.0
2017-Jan-04 22:33N 47°31' W 003°21'13 0.3
2017-Jan-03 04:28N 47°20' W 003°30'8 8.5
2017-Jan-03 03:34N 47°28' W 003°27'9 8.7
2017-Jan-03 02:34N 47°36' W 003°23'  

Dump ship's entire track history